Time;durP1;ratioP1;P1;durP2;ratioP2;P2;SDS_P1;SDS_P2;PMS_P1;PMS_P2;Temp;Humidity;BMP_temperature;BMP_pressure;BME280_temperature;BME280_humidity;BME280_pressure;Samples;Min_cycle;Max_cycle;Signal;HPM_P1;HPM_P2
2022/05/25 00:00:32;;;;;;;;;;;12.80;99.90;;;;;;5117769;28;19915;-80
2022/05/25 00:02:58;;;;;;;;;;;12.80;99.90;;;;;;5101119;28;19919;-80
2022/05/25 00:05:23;;;;;;;;;;;12.80;99.90;;;;;;5099051;28;19916;-81
2022/05/25 00:07:49;;;;;;;;;;;12.80;99.90;;;;;;5098843;28;19908;-80
2022/05/25 00:10:14;;;;;;;;;;;12.80;99.90;;;;;;5098433;28;19953;-81
2022/05/25 00:12:41;;;;;;;;;;;12.70;99.90;;;;;;5112059;28;19915;-80
2022/05/25 00:15:07;;;;;;;;;;;12.80;99.90;;;;;;5118149;28;20015;-80
2022/05/25 00:17:33;;;;;;;;;;;12.80;99.90;;;;;;5117937;28;20356;-79
2022/05/25 00:19:59;;;;;;;;;;;12.70;99.90;;;;;;5099560;28;19933;-80
2022/05/25 00:22:25;;;;;;;;;;;12.70;99.90;;;;;;5099937;28;19911;-80
2022/05/25 00:24:50;;;;;;;;;;;12.70;99.90;;;;;;5097914;28;20020;-81
2022/05/25 00:27:17;;;;;;;;;;;12.70;99.90;;;;;;5098763;28;20020;-80
2022/05/25 00:29:43;;;;;;;;;;;12.70;99.90;;;;;;5098248;28;19908;-80
2022/05/25 00:32:09;;;;;;;;;;;12.70;99.90;;;;;;5100739;28;20379;-80
2022/05/25 00:34:34;;;;;;;;;;;12.80;99.90;;;;;;5097156;28;19908;-80
2022/05/25 00:37:00;;;;;;;;;;;12.80;99.90;;;;;;5097303;28;19915;-80
2022/05/25 00:39:26;;;;;;;;;;;12.80;99.90;;;;;;5097442;28;19991;-80
2022/05/25 00:41:51;;;;;;;;;;;12.80;99.90;;;;;;5108064;28;19912;-80
2022/05/25 00:44:17;;;;;;;;;;;12.80;99.90;;;;;;5078535;28;19908;-79
2022/05/25 00:46:43;;;;;;;;;;;12.80;99.90;;;;;;5078579;28;19939;-80
2022/05/25 00:49:11;;;;;;;;;;;12.80;99.90;;;;;;5096609;28;20428;-80
2022/05/25 00:51:42;;;;;;;;;;;12.80;99.90;;;;;;5114188;28;19915;-80
2022/05/25 00:54:13;;;;;;;;;;;12.80;99.90;;;;;;5116743;28;19908;-80
2022/05/25 00:56:41;;;;;;;;;;;12.70;99.90;;;;;;5103107;28;19915;-80
2022/05/25 00:59:16;;;;;;;;;;;12.70;99.90;;;;;;5113793;28;19908;-80
2022/05/25 01:01:43;;;;;;;;;;;12.60;99.90;;;;;;5095370;28;20424;-80
2022/05/25 01:04:08;;;;;;;;;;;12.50;99.90;;;;;;5096329;28;19904;-81
2022/05/25 01:06:37;;;;;;;;;;;12.40;99.90;;;;;;5096106;28;19919;-80
2022/05/25 01:09:21;;;;;;;;;;;12.40;99.90;;;;;;5096087;28;19907;-80
2022/05/25 01:12:05;;;;;;;;;;;12.30;99.90;;;;;;5115034;28;19907;-80
2022/05/25 01:14:30;;;;;;;;;;;12.30;99.90;;;;;;5116406;28;19908;-80
2022/05/25 01:17:01;;;;;;;;;;;12.20;99.90;;;;;;5116379;28;20408;-80
2022/05/25 01:19:41;;;;;;;;;;;12.20;99.90;;;;;;5115790;28;20256;-80
2022/05/25 01:22:26;;;;;;;;;;;12.10;99.90;;;;;;5090474;28;20382;-80
2022/05/25 01:24:51;;;;;;;;;;;12.20;99.90;;;;;;5095998;28;19916;-81
2022/05/25 01:27:23;;;;;;;;;;;12.30;99.90;;;;;;5096954;28;19944;-80
2022/05/25 01:29:55;;;;;;;;;;;12.30;99.90;;;;;;5098145;28;19926;-80
2022/05/25 01:32:29;;;;;;;;;;;12.30;99.90;;;;;;5093845;28;19914;-81
2022/05/25 01:34:57;;;;;;;;;;;12.40;99.90;;;;;;5083078;28;19943;-80
2022/05/25 01:37:28;;;;;;;;;;;12.40;99.90;;;;;;5113314;28;19915;-80
2022/05/25 01:40:06;;;;;;;;;;;12.50;99.90;;;;;;5107767;28;19941;-80
2022/05/25 01:42:36;;;;;;;;;;;12.50;99.90;;;;;;5118499;28;19912;-81
2022/05/25 01:45:05;;;;;;;;;;;12.50;99.90;;;;;;5119195;28;19916;-81
2022/05/25 01:47:32;;;;;;;;;;;12.60;99.90;;;;;;5116471;28;19911;-81
2022/05/25 01:50:01;;;;;;;;;;;12.60;99.90;;;;;;5110480;28;19923;-80
2022/05/25 01:52:29;;;;;;;;;;;12.70;99.90;;;;;;5117205;28;19908;-81
2022/05/25 01:54:57;;;;;;;;;;;12.70;99.90;;;;;;5097594;28;19908;-81
2022/05/25 01:57:27;;;;;;;;;;;12.70;99.90;;;;;;5097501;28;19904;-80
2022/05/25 01:59:52;;;;;;;;;;;12.70;99.90;;;;;;5111673;28;20275;-81
2022/05/25 02:05:04;;;;;;;;;;;12.70;99.90;;;;;;5115065;28;19973;-80
2022/05/25 02:07:39;;;;;;;;;;;12.70;99.90;;;;;;5116737;28;20375;-80
2022/05/25 02:10:23;;;;;;;;;;;12.70;99.90;;;;;;5115657;28;19916;-80
2022/05/25 02:12:52;;;;;;;;;;;12.60;99.90;;;;;;5086368;28;19954;-80
2022/05/25 02:15:31;;;;;;;;;;;12.60;99.90;;;;;;5096203;28;19904;-80
2022/05/25 02:18:05;;;;;;;;;;;12.60;99.90;;;;;;5097101;28;20404;-80
2022/05/25 02:20:40;;;;;;;;;;;12.60;99.90;;;;;;5113798;28;19930;-81
2022/05/25 02:23:09;;;;;;;;;;;12.70;99.90;;;;;;5116367;28;19926;-80
2022/05/25 02:25:45;;;;;;;;;;;12.70;99.90;;;;;;5115680;28;19912;-80
2022/05/25 02:28:16;;;;;;;;;;;12.70;99.90;;;;;;5100021;28;19908;-80
2022/05/25 02:30:46;;;;;;;;;;;12.80;99.90;;;;;;5103243;28;20356;-80
2022/05/25 02:33:17;;;;;;;;;;;12.80;99.90;;;;;;5098629;28;19911;-81
2022/05/25 02:35:44;;;;;;;;;;;12.80;99.90;;;;;;5114475;28;19904;-80
2022/05/25 02:38:10;;;;;;;;;;;12.80;99.90;;;;;;5080675;28;19951;-80
2022/05/25 02:40:37;;;;;;;;;;;12.80;99.90;;;;;;5103373;28;20325;-80
2022/05/25 02:43:03;;;;;;;;;;;12.80;99.90;;;;;;5115843;28;20006;-80
2022/05/25 02:45:29;;;;;;;;;;;12.80;99.90;;;;;;5115739;28;19915;-80
2022/05/25 02:47:54;;;;;;;;;;;12.80;99.90;;;;;;5112700;28;19962;-80
2022/05/25 02:50:21;;;;;;;;;;;12.80;99.90;;;;;;5100260;28;19912;-80
2022/05/25 02:52:47;;;;;;;;;;;12.80;99.90;;;;;;5114165;28;19907;-80
2022/05/25 02:55:13;;;;;;;;;;;12.70;99.90;;;;;;5101738;28;19915;-80
2022/05/25 02:57:38;;;;;;;;;;;12.70;99.90;;;;;;5088511;28;19912;-80
2022/05/25 03:00:05;;;;;;;;;;;12.70;99.90;;;;;;5097740;28;19912;-80
2022/05/25 03:02:31;;;;;;;;;;;12.70;99.90;;;;;;5094290;28;19919;-80
2022/05/25 03:04:56;;;;;;;;;;;12.70;99.90;;;;;;5096094;28;20273;-80
2022/05/25 03:07:22;;;;;;;;;;;12.80;99.90;;;;;;5096527;28;19912;-80
2022/05/25 03:09:47;;;;;;;;;;;12.80;99.90;;;;;;5096098;28;19908;-79
2022/05/25 03:12:13;;;;;;;;;;;12.70;99.90;;;;;;5115370;28;19907;-80
2022/05/25 03:14:39;;;;;;;;;;;12.70;99.90;;;;;;5096522;28;20384;-80
2022/05/25 03:17:09;;;;;;;;;;;12.70;99.90;;;;;;5101425;28;19904;-80
2022/05/25 03:19:35;;;;;;;;;;;12.70;99.90;;;;;;5099984;28;19908;-80
2022/05/25 03:22:00;;;;;;;;;;;12.70;99.90;;;;;;5106033;28;19968;-80
2022/05/25 03:24:26;;;;;;;;;;;12.70;99.90;;;;;;5115332;28;19911;-80
2022/05/25 03:26:52;;;;;;;;;;;12.70;99.90;;;;;;5103936;28;19960;-80
2022/05/25 03:29:19;;;;;;;;;;;12.70;99.90;;;;;;5119397;28;19911;-80
2022/05/25 03:31:44;;;;;;;;;;;12.70;99.90;;;;;;5110082;28;19915;-81
2022/05/25 03:34:10;;;;;;;;;;;12.80;99.90;;;;;;5093936;28;19994;-80
2022/05/25 03:36:35;;;;;;;;;;;12.70;99.90;;;;;;5098808;28;20272;-80
2022/05/25 03:39:01;;;;;;;;;;;12.80;99.90;;;;;;5112298;28;20375;-82
2022/05/25 03:41:26;;;;;;;;;;;12.70;99.90;;;;;;5111898;28;20346;-82
2022/05/25 03:43:52;;;;;;;;;;;12.80;99.90;;;;;;5118931;28;19910;-82
2022/05/25 03:46:18;;;;;;;;;;;12.80;99.90;;;;;;5114083;28;20010;-81
2022/05/25 03:48:44;;;;;;;;;;;12.80;99.90;;;;;;5106227;28;19908;-81
2022/05/25 03:51:10;;;;;;;;;;;12.80;99.90;;;;;;5116138;28;19915;-81
2022/05/25 03:53:35;;;;;;;;;;;12.80;99.90;;;;;;5119849;28;20303;-82
2022/05/25 03:56:01;;;;;;;;;;;12.70;99.90;;;;;;5108137;28;19919;-80
2022/05/25 03:58:30;;;;;;;;;;;12.70;99.90;;;;;;5105145;28;20014;-82
2022/05/25 04:00:55;;;;;;;;;;;12.60;99.90;;;;;;5112255;28;19999;-82
2022/05/25 04:03:21;;;;;;;;;;;12.50;99.90;;;;;;5101679;28;19969;-81
2022/05/25 04:05:47;;;;;;;;;;;12.50;99.90;;;;;;5119279;28;19976;-82
2022/05/25 04:08:12;;;;;;;;;;;12.50;99.90;;;;;;5099787;28;20002;-81
2022/05/25 04:10:38;;;;;;;;;;;12.50;99.90;;;;;;5103205;28;19908;-81
2022/05/25 04:13:04;;;;;;;;;;;12.60;99.90;;;;;;5118463;28;19904;-81
2022/05/25 04:15:31;;;;;;;;;;;12.50;99.90;;;;;;5118597;28;19904;-81
2022/05/25 04:17:56;;;;;;;;;;;12.50;99.90;;;;;;5099401;28;19908;-81
2022/05/25 04:20:23;;;;;;;;;;;12.50;99.90;;;;;;5108787;28;19922;-82
2022/05/25 04:22:48;;;;;;;;;;;12.50;99.90;;;;;;5099872;28;19903;-82
2022/05/25 04:25:15;;;;;;;;;;;12.50;99.90;;;;;;5090311;28;19965;-81
2022/05/25 04:27:41;;;;;;;;;;;12.40;99.90;;;;;;5094656;28;19914;-82
2022/05/25 04:30:09;;;;;;;;;;;12.40;99.90;;;;;;5096951;28;19911;-81
2022/05/25 04:32:34;;;;;;;;;;;12.40;99.90;;;;;;5083321;28;19904;-81
2022/05/25 04:35:00;;;;;;;;;;;12.40;99.90;;;;;;5076620;28;19911;-81
2022/05/25 04:38:07;;;;;;;;;;;12.40;99.90;;;;;;5077308;28;19904;-82
2022/05/25 04:40:15;;;;;;;;;;;12.50;99.90;;;;;;5068603;28;19911;-82
2022/05/25 04:42:43;;;;;;;;;;;12.50;99.90;;;;;;5076386;28;19911;-82
2022/05/25 04:45:09;;;;;;;;;;;12.50;99.90;;;;;;5076753;28;20006;-81
2022/05/25 04:47:37;;;;;;;;;;;12.50;99.90;;;;;;5076557;28;19904;-82
2022/05/25 04:50:04;;;;;;;;;;;12.50;99.90;;;;;;5076055;28;19936;-81
2022/05/25 04:52:31;;;;;;;;;;;12.50;99.90;;;;;;5076093;28;19991;-81
2022/05/25 04:54:56;;;;;;;;;;;12.60;99.90;;;;;;5076010;28;20276;-81
2022/05/25 04:57:27;;;;;;;;;;;12.60;99.90;;;;;;5076694;28;19904;-81
2022/05/25 04:59:54;;;;;;;;;;;12.60;99.90;;;;;;5076667;28;20007;-81
2022/05/25 05:02:19;;;;;;;;;;;12.60;99.90;;;;;;5076019;28;19966;-81
2022/05/25 05:04:46;;;;;;;;;;;12.60;99.90;;;;;;5075396;28;19909;-81
2022/05/25 05:07:12;;;;;;;;;;;12.70;99.90;;;;;;5076180;28;19950;-81
2022/05/25 05:09:38;;;;;;;;;;;12.70;99.90;;;;;;5075826;28;19969;-81
2022/05/25 05:12:04;;;;;;;;;;;12.70;99.90;;;;;;5076140;28;19911;-81
2022/05/25 05:14:30;;;;;;;;;;;12.80;99.90;;;;;;5076076;28;19904;-81
2022/05/25 05:16:57;;;;;;;;;;;12.80;99.90;;;;;;5075877;28;19930;-82
2022/05/25 05:19:26;;;;;;;;;;;12.80;99.90;;;;;;5057379;28;19911;-82
2022/05/25 05:21:54;;;;;;;;;;;12.90;99.90;;;;;;5075517;28;19951;-82
2022/05/25 05:24:20;;;;;;;;;;;12.90;99.90;;;;;;5057333;28;19911;-81
2022/05/25 05:26:46;;;;;;;;;;;12.90;99.90;;;;;;5075612;28;19908;-81
2022/05/25 05:29:11;;;;;;;;;;;12.90;99.90;;;;;;5057552;28;20494;-81
2022/05/25 05:31:37;;;;;;;;;;;12.80;99.90;;;;;;5075721;28;19991;-81
2022/05/25 05:34:03;;;;;;;;;;;12.80;99.90;;;;;;5075383;28;19905;-81
2022/05/25 05:36:30;;;;;;;;;;;12.80;99.90;;;;;;5076007;28;19904;-82
2022/05/25 05:38:59;;;;;;;;;;;12.80;99.90;;;;;;5075571;28;19973;-81
2022/05/25 05:41:26;;;;;;;;;;;12.90;99.90;;;;;;5075788;28;19908;-82
2022/05/25 05:43:52;;;;;;;;;;;12.90;99.90;;;;;;5075920;28;19915;-82
2022/05/25 05:46:18;;;;;;;;;;;12.90;99.90;;;;;;5075425;28;19909;-81
2022/05/25 05:48:44;;;;;;;;;;;12.90;99.90;;;;;;5075646;28;19904;-82
2022/05/25 05:51:11;;;;;;;;;;;12.90;99.90;;;;;;5076275;28;20333;-82
2022/05/25 05:53:37;;;;;;;;;;;12.90;99.90;;;;;;5057532;28;19904;-81
2022/05/25 05:56:03;;;;;;;;;;;12.90;99.90;;;;;;5076577;28;20310;-81
2022/05/25 05:58:29;;;;;;;;;;;12.90;99.90;;;;;;5075671;28;19905;-81
2022/05/25 06:00:55;;;;;;;;;;;12.90;99.90;;;;;;5075485;28;20269;-82
2022/05/25 06:03:20;;;;;;;;;;;12.90;99.90;;;;;;5075954;28;20291;-81
2022/05/25 06:05:46;;;;;;;;;;;12.90;99.90;;;;;;5076149;28;19916;-82
2022/05/25 06:08:16;;;;;;;;;;;12.80;99.90;;;;;;5077117;28;19908;-82
2022/05/25 06:10:42;;;;;;;;;;;12.80;99.90;;;;;;5077777;28;20387;-82
2022/05/25 06:13:08;;;;;;;;;;;12.80;99.90;;;;;;5077375;28;19904;-82
2022/05/25 06:21:03;;;;;;;;;;;12.80;99.90;;;;;;5076905;28;19931;-82
2022/05/25 06:23:29;;;;;;;;;;;12.80;99.90;;;;;;5076838;28;20276;-82
2022/05/25 06:25:54;;;;;;;;;;;12.80;99.90;;;;;;5076126;28;19909;-81
2022/05/25 06:28:20;;;;;;;;;;;12.80;99.90;;;;;;5075760;28;19905;-81
2022/05/25 06:30:45;;;;;;;;;;;12.80;99.90;;;;;;5075355;28;19912;-81
2022/05/25 06:33:11;;;;;;;;;;;12.80;99.90;;;;;;5075547;28;19908;-80
2022/05/25 06:35:36;;;;;;;;;;;12.80;99.90;;;;;;5075292;28;20410;-80
2022/05/25 06:38:03;;;;;;;;;;;12.80;99.90;;;;;;5075369;28;19904;-80
2022/05/25 06:40:29;;;;;;;;;;;12.70;99.90;;;;;;5075446;28;20323;-80
2022/05/25 06:42:55;;;;;;;;;;;12.60;99.90;;;;;;5075022;28;19920;-80
2022/05/25 06:45:21;;;;;;;;;;;12.60;99.90;;;;;;5074976;28;19912;-80
2022/05/25 06:47:47;;;;;;;;;;;12.50;99.90;;;;;;5075098;28;19999;-81
2022/05/25 06:50:12;;;;;;;;;;;12.50;99.90;;;;;;5075378;28;19904;-80
2022/05/25 06:52:38;;;;;;;;;;;12.50;99.90;;;;;;5078639;28;19999;-80
2022/05/25 06:55:04;;;;;;;;;;;12.50;99.90;;;;;;5078713;28;19908;-80
2022/05/25 06:57:30;;;;;;;;;;;12.50;99.90;;;;;;5078335;28;19905;-80
2022/05/25 06:59:55;;;;;;;;;;;12.40;99.90;;;;;;5078971;28;19915;-81
2022/05/25 07:02:21;;;;;;;;;;;12.40;99.90;;;;;;5079418;28;19969;-80
2022/05/25 07:04:46;;;;;;;;;;;12.40;99.90;;;;;;5078507;28;19927;-80
2022/05/25 07:07:12;;;;;;;;;;;12.40;99.90;;;;;;5079028;28;19904;-80
2022/05/25 07:09:39;;;;;;;;;;;12.40;99.90;;;;;;5078975;28;19912;-80
2022/05/25 07:12:05;;;;;;;;;;;12.40;99.90;;;;;;5060775;28;20344;-81
2022/05/25 07:14:31;;;;;;;;;;;12.40;99.90;;;;;;5079366;28;19908;-81
2022/05/25 07:16:59;;;;;;;;;;;12.30;99.90;;;;;;5078586;28;19957;-81
2022/05/25 07:19:24;;;;;;;;;;;12.30;99.90;;;;;;5078573;28;20316;-80
2022/05/25 07:21:50;;;;;;;;;;;12.20;99.90;;;;;;5061027;28;19961;-80
2022/05/25 07:24:15;;;;;;;;;;;12.20;99.90;;;;;;5078496;28;20003;-80
2022/05/25 07:26:41;;;;;;;;;;;12.20;99.90;;;;;;5078694;28;20037;-80
2022/05/25 07:29:06;;;;;;;;;;;12.10;99.90;;;;;;5078664;28;19905;-81
2022/05/25 07:31:43;;;;;;;;;;;12.10;99.90;;;;;;5078217;28;19905;-81
2022/05/25 07:34:19;;;;;;;;;;;12.20;99.90;;;;;;5078222;28;20033;-80
2022/05/25 07:36:50;;;;;;;;;;;12.20;99.90;;;;;;5078383;28;19911;-81
2022/05/25 07:39:17;;;;;;;;;;;12.30;99.90;;;;;;5077712;28;19910;-81
2022/05/25 07:41:45;;;;;;;;;;;12.30;99.90;;;;;;5078178;28;20416;-81
2022/05/25 07:44:14;;;;;;;;;;;12.30;99.90;;;;;;5077930;28;19994;-81
2022/05/25 07:46:39;;;;;;;;;;;12.30;99.90;;;;;;5059854;28;20000;-81
2022/05/25 07:49:05;;;;;;;;;;;12.40;99.90;;;;;;5059852;28;19947;-81
2022/05/25 07:51:31;;;;;;;;;;;12.40;99.90;;;;;;5059949;28;20268;-81
2022/05/25 07:53:58;;;;;;;;;;;12.50;99.90;;;;;;5059853;28;19915;-81
2022/05/25 07:56:24;;;;;;;;;;;12.50;99.90;;;;;;5077662;28;20361;-81
2022/05/25 07:58:50;;;;;;;;;;;12.60;99.90;;;;;;5077584;28;19904;-81
2022/05/25 08:01:17;;;;;;;;;;;12.60;99.90;;;;;;5076797;28;19953;-81
2022/05/25 08:06:28;;;;;;;;;;;12.70;99.90;;;;;;5077456;28;19931;-81
2022/05/25 08:08:55;;;;;;;;;;;12.80;99.90;;;;;;5076905;28;19908;-81
2022/05/25 08:11:22;;;;;;;;;;;12.80;99.90;;;;;;5077030;28;19904;-81
2022/05/25 08:13:49;;;;;;;;;;;12.80;99.90;;;;;;5058786;28;19904;-81
2022/05/25 08:16:15;;;;;;;;;;;12.80;99.90;;;;;;5058960;28;19904;-81
2022/05/25 08:18:41;;;;;;;;;;;12.90;99.90;;;;;;5077236;28;20362;-81
2022/05/25 08:21:06;;;;;;;;;;;12.90;99.90;;;;;;5076916;28;20360;-81
2022/05/25 08:23:32;;;;;;;;;;;13.00;99.90;;;;;;5077387;28;19908;-81
2022/05/25 08:25:57;;;;;;;;;;;13.00;99.90;;;;;;5077567;28;19908;-81
2022/05/25 08:28:23;;;;;;;;;;;13.00;99.90;;;;;;5059491;28;19904;-82
2022/05/25 08:30:49;;;;;;;;;;;13.00;99.90;;;;;;5077517;28;19910;-81
2022/05/25 08:33:20;;;;;;;;;;;13.00;99.90;;;;;;5059634;28;19904;-82
2022/05/25 08:35:46;;;;;;;;;;;13.00;99.90;;;;;;5077201;28;19950;-81
2022/05/25 08:38:12;;;;;;;;;;;13.00;99.90;;;;;;5077304;28;19908;-82
2022/05/25 08:40:37;;;;;;;;;;;13.00;99.90;;;;;;5076909;28;19910;-81
2022/05/25 08:43:18;;;;;;;;;;;13.10;99.90;;;;;;5077407;28;19995;-81
2022/05/25 08:45:49;;;;;;;;;;;13.10;99.90;;;;;;5076982;28;19912;-82
2022/05/25 08:48:15;;;;;;;;;;;13.10;99.90;;;;;;5076938;28;19905;-82
2022/05/25 08:50:41;;;;;;;;;;;13.10;99.90;;;;;;5077119;28;20279;-82
2022/05/25 08:53:08;;;;;;;;;;;13.10;99.90;;;;;;5077017;28;20003;-82
2022/05/25 08:55:40;;;;;;;;;;;13.10;99.90;;;;;;5059319;28;19904;-81
2022/05/25 08:58:06;;;;;;;;;;;13.10;99.90;;;;;;5077312;28;19904;-81
2022/05/25 09:00:31;;;;;;;;;;;13.10;99.90;;;;;;5077371;28;20003;-81
2022/05/25 09:03:00;;;;;;;;;;;13.20;99.90;;;;;;5059273;28;20345;-81
2022/05/25 09:05:28;;;;;;;;;;;13.20;99.90;;;;;;5077148;28;19948;-82
2022/05/25 09:07:57;;;;;;;;;;;13.30;99.90;;;;;;5076935;28;19904;-81
2022/05/25 09:10:23;;;;;;;;;;;13.40;99.90;;;;;;5077245;28;19951;-81
2022/05/25 09:12:56;;;;;;;;;;;13.40;99.90;;;;;;5076743;28;19908;-81
2022/05/25 09:15:27;;;;;;;;;;;13.50;99.90;;;;;;5077163;28;19912;-81
2022/05/25 09:18:00;;;;;;;;;;;13.60;99.90;;;;;;5076177;28;19908;-82
2022/05/25 09:20:28;;;;;;;;;;;13.60;99.90;;;;;;5076405;28;19904;-81
2022/05/25 09:22:54;;;;;;;;;;;13.60;99.90;;;;;;5076159;28;19912;-82
2022/05/25 09:25:21;;;;;;;;;;;13.60;99.90;;;;;;5076622;28;19908;-81
2022/05/25 09:28:07;;;;;;;;;;;13.70;99.90;;;;;;5076259;28;19912;-82
2022/05/25 09:30:35;;;;;;;;;;;13.70;99.90;;;;;;5076077;28;19904;-83
2022/05/25 09:33:13;;;;;;;;;;;13.80;99.90;;;;;;5076068;28;19911;-81
2022/05/25 09:35:42;;;;;;;;;;;13.90;99.90;;;;;;5076100;28;20368;-82
2022/05/25 09:38:12;;;;;;;;;;;14.00;99.90;;;;;;5075802;28;19991;-82
2022/05/25 09:40:38;;;;;;;;;;;14.10;99.90;;;;;;5075622;28;19905;-82
2022/05/25 09:43:06;;;;;;;;;;;14.20;99.90;;;;;;5075385;28;19908;-82
2022/05/25 09:45:45;;;;;;;;;;;14.30;99.90;;;;;;5076034;28;20008;-82
2022/05/25 09:48:15;;;;;;;;;;;14.40;99.90;;;;;;5075870;28;19908;-82
2022/05/25 09:50:50;;;;;;;;;;;14.50;99.90;;;;;;5075943;28;20356;-82
2022/05/25 09:53:17;;;;;;;;;;;14.60;99.90;;;;;;5076386;28;19908;-82
2022/05/25 09:55:49;;;;;;;;;;;14.70;99.90;;;;;;5057994;28;19940;-82
2022/05/25 09:58:29;;;;;;;;;;;14.70;99.90;;;;;;5076172;28;19955;-82
2022/05/25 10:00:59;;;;;;;;;;;14.70;99.90;;;;;;5076364;28;19904;-82
2022/05/25 10:03:44;;;;;;;;;;;14.70;99.90;;;;;;5076284;28;19979;-82
2022/05/25 10:06:18;;;;;;;;;;;14.70;99.90;;;;;;5075900;28;19908;-82
2022/05/25 10:08:43;;;;;;;;;;;14.80;99.90;;;;;;5075789;28;19911;-82
2022/05/25 10:11:35;;;;;;;;;;;14.90;99.90;;;;;;5057697;28;19904;-82
2022/05/25 10:14:15;;;;;;;;;;;15.00;99.90;;;;;;5076157;28;19953;-82
2022/05/25 10:16:41;;;;;;;;;;;15.10;99.90;;;;;;5075917;28;20294;-82
2022/05/25 10:19:14;;;;;;;;;;;15.20;99.90;;;;;;5075676;28;19911;-82
2022/05/25 10:21:45;;;;;;;;;;;15.20;99.90;;;;;;5075232;28;20368;-82
2022/05/25 10:24:16;;;;;;;;;;;15.10;99.90;;;;;;5056872;28;19959;-82
2022/05/25 10:26:49;;;;;;;;;;;15.10;99.90;;;;;;5074931;28;20007;-82
2022/05/25 10:36:45;;;;;;;;;;;15.20;99.90;;;;;;5076091;28;19904;-82
2022/05/25 10:37:54;;;;;;;;;;;15.30;99.90;;;;;;5095554;28;19911;-82
2022/05/25 10:40:22;;;;;;;;;;;15.30;99.90;;;;;;5095075;28;20275;-82
2022/05/25 10:42:50;;;;;;;;;;;15.20;99.90;;;;;;5095550;28;19904;-81
2022/05/25 10:45:19;;;;;;;;;;;15.20;99.90;;;;;;5095331;28;20380;-82
2022/05/25 10:47:51;;;;;;;;;;;15.20;99.90;;;;;;5077554;28;19911;-82
2022/05/25 10:50:52;;;;;;;;;;;15.30;99.90;;;;;;5095011;28;19968;-81
2022/05/25 10:53:17;;;;;;;;;;;15.30;99.90;;;;;;4994126;28;19913;-82
2022/05/25 10:55:52;;;;;;;;;;;15.50;99.90;;;;;;5074630;28;19904;-81
2022/05/25 10:58:24;;;;;;;;;;;15.60;99.90;;;;;;5077506;28;20276;-81
2022/05/25 11:01:08;;;;;;;;;;;15.70;99.90;;;;;;5095887;28;19904;-81
2022/05/25 11:03:45;;;;;;;;;;;15.70;99.90;;;;;;5095559;28;19912;-81
2022/05/25 11:06:13;;;;;;;;;;;15.60;99.90;;;;;;5094987;28;19947;-81
2022/05/25 11:08:54;;;;;;;;;;;15.60;99.90;;;;;;5076950;28;19933;-81
2022/05/25 11:11:26;;;;;;;;;;;15.40;99.90;;;;;;5095320;28;19904;-81
2022/05/25 11:14:14;;;;;;;;;;;15.20;99.90;;;;;;5078893;28;19904;-82
2022/05/25 11:16:45;;;;;;;;;;;15.10;99.90;;;;;;5096357;28;19905;-81
2022/05/25 11:19:16;;;;;;;;;;;15.00;99.90;;;;;;5094493;28;19905;-80
2022/05/25 11:22:14;;;;;;;;;;;15.00;99.90;;;;;;5076192;28;19908;-80
2022/05/25 11:24:49;;;;;;;;;;;14.90;99.90;;;;;;5039915;28;20056;-81
2022/05/25 11:27:34;;;;;;;;;;;15.00;99.90;;;;;;5096061;28;19904;-80
2022/05/25 11:30:06;;;;;;;;;;;15.00;99.90;;;;;;5095672;28;19904;-81
2022/05/25 11:32:50;;;;;;;;;;;15.00;99.90;;;;;;5077238;28;19942;-80
2022/05/25 11:35:21;;;;;;;;;;;15.00;99.90;;;;;;5095155;28;20294;-81
2022/05/25 11:38:21;;;;;;;;;;;15.00;99.90;;;;;;5099183;28;19994;-81
2022/05/25 11:41:05;;;;;;;;;;;15.10;99.90;;;;;;5060991;28;20330;-81
2022/05/25 11:43:43;;;;;;;;;;;15.10;99.90;;;;;;5099284;28;20257;-82
2022/05/25 11:46:16;;;;;;;;;;;15.20;99.90;;;;;;5098470;28;19908;-81
2022/05/25 11:48:42;;;;;;;;;;;15.40;99.90;;;;;;5093972;28;20275;-82
2022/05/25 11:51:08;;;;;;;;;;;15.50;99.90;;;;;;5099489;28;19904;-82
2022/05/25 11:53:55;;;;;;;;;;;15.70;99.90;;;;;;5095261;28;19904;-81
2022/05/25 11:56:39;;;;;;;;;;;15.70;99.90;;;;;;5080201;28;20360;-81
2022/05/25 11:59:23;;;;;;;;;;;15.70;99.90;;;;;;5084638;28;19904;-82
2022/05/25 12:02:01;;;;;;;;;;;15.70;99.90;;;;;;5093310;28;19954;-82
2022/05/25 12:04:35;;;;;;;;;;;15.60;99.90;;;;;;5081875;28;19908;-82
2022/05/25 12:07:13;;;;;;;;;;;15.60;99.90;;;;;;5098728;28;19908;-82
2022/05/25 12:09:44;;;;;;;;;;;15.70;99.90;;;;;;5099864;28;19904;-81
2022/05/25 12:12:13;;;;;;;;;;;15.70;99.90;;;;;;5081031;28;19904;-82
2022/05/25 12:14:57;;;;;;;;;;;15.70;99.90;;;;;;5098218;28;20428;-82
2022/05/25 12:17:45;;;;;;;;;;;15.70;99.90;;;;;;5081140;28;19911;-82
2022/05/25 12:20:12;;;;;;;;;;;15.70;99.90;;;;;;5099822;28;19931;-81
2022/05/25 12:22:42;;;;;;;;;;;15.80;99.90;;;;;;5097353;28;19905;-81
2022/05/25 12:25:09;;;;;;;;;;;15.80;99.90;;;;;;5097535;28;19907;-81
2022/05/25 12:27:40;;;;;;;;;;;15.90;99.90;;;;;;5097882;28;19904;-81
2022/05/25 12:30:08;;;;;;;;;;;15.90;99.90;;;;;;5079524;28;19910;-81
2022/05/25 12:32:35;;;;;;;;;;;15.90;98.80;;;;;;5097668;28;20002;-81
2022/05/25 12:35:01;;;;;;;;;;;15.90;99.90;;;;;;5098116;28;19926;-81
2022/05/25 12:37:28;;;;;;;;;;;15.90;99.90;;;;;;5098928;28;19995;-81
2022/05/25 12:39:55;;;;;;;;;;;15.90;99.90;;;;;;5101440;28;19994;-82
2022/05/25 12:42:24;;;;;;;;;;;15.90;99.90;;;;;;5100093;28;19921;-81
2022/05/25 12:50:41;;;;;;;;;;;15.90;99.90;;;;;;5098250;28;19972;-82
2022/05/25 12:53:26;;;;;;;;;;;15.90;99.90;;;;;;5098336;28;19908;-81
2022/05/25 12:55:53;;;;;;;;;;;15.90;99.10;;;;;;5102343;28;19907;-82
2022/05/25 12:58:32;;;;;;;;;;;15.90;98.80;;;;;;5101150;28;19953;-82
2022/05/25 13:01:06;;;;;;;;;;;16.00;97.90;;;;;;5092097;28;19915;-82
2022/05/25 13:03:40;;;;;;;;;;;15.90;98.40;;;;;;5089023;28;19919;-82
2022/05/25 13:06:07;;;;;;;;;;;16.00;99.00;;;;;;5074589;28;19912;-81
2022/05/25 13:08:50;;;;;;;;;;;16.00;97.90;;;;;;5085343;28;19935;-82
2022/05/25 13:11:42;;;;;;;;;;;16.00;98.10;;;;;;5069207;28;19951;-81
2022/05/25 13:14:17;;;;;;;;;;;16.00;99.20;;;;;;5086245;28;19909;-81
2022/05/25 13:16:42;;;;;;;;;;;16.00;98.50;;;;;;5089899;28;20357;-81
2022/05/25 13:19:26;;;;;;;;;;;16.00;98.80;;;;;;5086922;28;19931;-81
2022/05/25 13:21:52;;;;;;;;;;;16.00;98.90;;;;;;5099402;28;19912;-80
2022/05/25 13:24:25;;;;;;;;;;;16.10;97.70;;;;;;5100444;28;19954;-81
2022/05/25 13:27:02;;;;;;;;;;;16.20;97.40;;;;;;5088183;28;19912;-81
2022/05/25 13:29:51;;;;;;;;;;;16.20;95.70;;;;;;5070722;28;19908;-81
2022/05/25 13:32:33;;;;;;;;;;;16.20;96.80;;;;;;5072874;28;19955;-80
2022/05/25 13:35:01;;;;;;;;;;;16.20;97.20;;;;;;5088568;28;19991;-81
2022/05/25 13:37:30;;;;;;;;;;;16.30;97.50;;;;;;5090373;28;19904;-81
2022/05/25 13:39:56;;;;;;;;;;;16.30;97.00;;;;;;5087893;28;19958;-81
2022/05/25 13:42:22;;;;;;;;;;;16.40;97.10;;;;;;5083531;28;19908;-82
2022/05/25 13:44:54;;;;;;;;;;;16.30;97.80;;;;;;5087801;28;19923;-81
2022/05/25 13:47:25;;;;;;;;;;;16.20;98.40;;;;;;5095152;28;19917;-81
2022/05/25 13:49:52;;;;;;;;;;;16.10;97.90;;;;;;5097679;28;20165;-81
2022/05/25 13:52:17;;;;;;;;;;;16.10;98.80;;;;;;5086268;28;20288;-80
2022/05/25 13:54:45;;;;;;;;;;;16.10;99.60;;;;;;5074793;28;19915;-80
2022/05/25 13:57:23;;;;;;;;;;;16.10;99.80;;;;;;5075728;28;19911;-80
2022/05/25 13:59:48;;;;;;;;;;;16.20;99.20;;;;;;5074943;28;19904;-80
2022/05/25 14:02:18;;;;;;;;;;;16.20;98.60;;;;;;5084892;28;19911;-80
2022/05/25 14:04:44;;;;;;;;;;;16.30;97.70;;;;;;5094238;28;20375;-80
2022/05/25 14:07:22;;;;;;;;;;;16.30;99.10;;;;;;5095226;28;19957;-81
2022/05/25 14:12:32;;;;;;;;;;;16.40;98.30;;;;;;5098503;28;19915;-81
2022/05/25 14:14:58;;;;;;;;;;;16.30;98.60;;;;;;5096950;28;20415;-80
2022/05/25 14:17:25;;;;;;;;;;;16.40;98.80;;;;;;5097411;28;19986;-80
2022/05/25 14:19:52;;;;;;;;;;;16.40;98.80;;;;;;5096134;28;19904;-80
2022/05/25 14:22:19;;;;;;;;;;;16.50;99.40;;;;;;5095097;28;19911;-80
2022/05/25 14:24:47;;;;;;;;;;;16.70;99.40;;;;;;5096031;28;19904;-80
2022/05/25 14:27:13;;;;;;;;;;;16.80;98.50;;;;;;5096533;28;19919;-80
2022/05/25 14:29:39;;;;;;;;;;;16.80;98.60;;;;;;5095772;28;19904;-80
2022/05/25 14:32:11;;;;;;;;;;;16.80;98.60;;;;;;5096224;28;20315;-80
2022/05/25 14:34:39;;;;;;;;;;;16.80;98.90;;;;;;5096702;28;19911;-80
2022/05/25 14:37:04;;;;;;;;;;;16.80;99.10;;;;;;5095849;28;19904;-80
2022/05/25 14:39:36;;;;;;;;;;;16.80;98.70;;;;;;5096444;28;19926;-80
2022/05/25 14:42:13;;;;;;;;;;;16.70;98.30;;;;;;5096612;28;20275;-81
2022/05/25 14:44:43;;;;;;;;;;;16.70;98.70;;;;;;5096857;28;20372;-80
2022/05/25 14:47:14;;;;;;;;;;;16.60;98.00;;;;;;5096570;28;19907;-80
2022/05/25 14:49:46;;;;;;;;;;;16.50;98.20;;;;;;5096553;28;19904;-81
2022/05/25 14:52:15;;;;;;;;;;;16.40;98.80;;;;;;5111172;28;19949;-81
2022/05/25 14:54:41;;;;;;;;;;;16.40;98.70;;;;;;5099355;28;19908;-81